createdAt,value
2023-03-14T00:01:16.162Z,98883.44
2023-03-14T00:03:37.905Z,98877.16
2023-03-14T00:06:04.495Z,98876.72
2023-03-14T00:08:26.093Z,98873.59
2023-03-14T00:10:47.900Z,98876.34
2023-03-14T00:13:10.329Z,98872.38
2023-03-14T00:15:35.052Z,98877.53
2023-03-14T00:17:57.082Z,98870.44
2023-03-14T00:20:19.003Z,98869.63
2023-03-14T00:22:42.207Z,98864.91
2023-03-14T00:25:05.717Z,98870.44
2023-03-14T00:27:27.612Z,98879.09
2023-03-14T00:29:49.239Z,98876.75
2023-03-14T00:32:11.060Z,98874.78
2023-03-14T00:34:35.414Z,98877.50
2023-03-14T00:36:56.994Z,98884.59
2023-03-14T00:39:18.649Z,98883.03
2023-03-14T00:41:40.193Z,98885.78
2023-03-14T00:44:01.857Z,98884.22
2023-03-14T00:46:23.745Z,98882.25
2023-03-14T00:48:47.027Z,98870.00
2023-03-14T00:51:10.092Z,98888.13
2023-03-14T00:53:31.982Z,98888.13
2023-03-14T00:55:53.698Z,98887.75
2023-03-14T00:58:18.405Z,98894.03
2023-03-14T01:00:40.948Z,98896.03
2023-03-14T01:03:03.358Z,98891.66
2023-03-14T01:05:25.522Z,98891.28
2023-03-14T01:07:47.124Z,98896.81
2023-03-14T01:10:09.999Z,98889.31
2023-03-14T01:12:33.643Z,98896.03
2023-03-14T01:14:55.272Z,98901.53
2023-03-14T01:17:16.842Z,98886.56
2023-03-14T01:19:38.515Z,98886.56
2023-03-14T01:22:00.170Z,98887.34
2023-03-14T01:24:21.855Z,98893.22
2023-03-14T01:26:43.599Z,98889.69
2023-03-14T01:29:05.531Z,98890.47
2023-03-14T01:31:30.641Z,98877.47
2023-03-14T01:33:52.897Z,98896.00
2023-03-14T01:36:15.449Z,98891.66
2023-03-14T01:38:40.729Z,98878.66
2023-03-14T01:41:05.495Z,98872.34
2023-03-14T01:43:28.397Z,98868.41
2023-03-14T01:45:59.328Z,98861.72
2023-03-14T01:48:21.217Z,98853.03
2023-03-14T01:50:43.153Z,98857.34
2023-03-14T01:53:05.078Z,98853.03
2023-03-14T01:55:26.830Z,98849.03
2023-03-14T01:58:06.041Z,98848.66
2023-03-14T02:00:28.013Z,98850.19
2023-03-14T02:02:56.674Z,98847.06
2023-03-14T02:05:28.405Z,98840.38
2023-03-14T02:08:00.830Z,98837.22
2023-03-14T02:10:33.433Z,98836.03
2023-03-14T02:13:01.734Z,98854.13
2023-03-14T02:15:34.274Z,98838.38
2023-03-14T02:18:04.873Z,98841.13
2023-03-14T02:21:13.313Z,98836.00
2023-03-14T02:23:57.734Z,98841.13
2023-03-14T02:26:36.368Z,98843.09
2023-03-14T02:28:58.892Z,98832.44
2023-03-14T02:31:22.660Z,98839.53
2023-03-14T02:33:45.350Z,98841.91
2023-03-14T02:36:14.416Z,98839.56
2023-03-14T02:38:49.144Z,98837.59
2023-03-14T02:41:11.160Z,98847.41
2023-03-14T02:43:38.387Z,98838.78
2023-03-14T02:46:07.043Z,98838.78
2023-03-14T02:48:48.811Z,98847.84
2023-03-14T02:51:13.186Z,98843.09
2023-03-14T02:53:38.290Z,98832.06
2023-03-14T02:56:06.282Z,98824.16
2023-03-14T02:58:31.310Z,98831.28
2023-03-14T03:01:01.072Z,98826.16
2023-03-14T03:03:23.262Z,98836.41
2023-03-14T03:05:53.543Z,98832.47
2023-03-14T03:08:15.190Z,98827.31
2023-03-14T03:10:37.646Z,98824.97
2023-03-14T03:12:59.809Z,98831.28
2023-03-14T03:15:23.587Z,98830.88
2023-03-14T03:17:45.870Z,98832.44
2023-03-14T03:20:10.159Z,98837.19
2023-03-14T03:22:31.895Z,98836.78
2023-03-14T03:24:53.472Z,98823.78
2023-03-14T03:27:15.036Z,98831.25
2023-03-14T03:29:36.722Z,98829.63
2023-03-14T03:31:58.707Z,98823.34
2023-03-14T03:34:20.791Z,98818.22
2023-03-14T03:36:45.746Z,98826.50
2023-03-14T03:39:08.590Z,98823.38
2023-03-14T03:41:31.523Z,98824.13
2023-03-14T03:43:55.123Z,98825.31
2023-03-14T03:46:17.032Z,98832.81
2023-03-14T03:48:39.582Z,98827.69
2023-03-14T03:51:01.992Z,98813.09
2023-03-14T03:53:33.307Z,98811.13
2023-03-14T03:55:59.189Z,98814.28
2023-03-14T03:58:21.015Z,98813.09
2023-03-14T04:00:42.658Z,98815.47
2023-03-14T04:03:04.455Z,98804.81
2023-03-14T04:05:26.211Z,98801.66
2023-03-14T04:07:56.364Z,98813.06
2023-03-14T04:10:21.327Z,98802.81
2023-03-14T04:12:57.130Z,98799.28
2023-03-14T04:15:22.101Z,98796.91
2023-03-14T04:17:47.309Z,98787.44
2023-03-14T04:20:14.318Z,98787.03
2023-03-14T04:22:36.315Z,98795.69
2023-03-14T04:24:57.941Z,98799.22
2023-03-14T04:27:19.842Z,98798.84
2023-03-14T04:29:43.994Z,98798.44
2023-03-14T04:32:07.403Z,98799.63
2023-03-14T04:34:30.201Z,98801.97
2023-03-14T04:36:53.159Z,98798.81
2023-03-14T04:39:20.926Z,98802.34
2023-03-14T04:41:51.575Z,98796.44
2023-03-14T04:44:13.593Z,98787.75
2023-03-14T04:46:35.306Z,98785.00
2023-03-14T04:48:59.573Z,98783.41
2023-03-14T04:51:23.846Z,98780.63
2023-03-14T04:53:45.496Z,98774.72
2023-03-14T04:56:09.511Z,98773.50
2023-03-14T04:58:34.984Z,98775.47
2023-03-14T05:01:07.039Z,98780.59
2023-03-14T05:03:47.282Z,98771.16
2023-03-14T05:06:27.945Z,98770.34
2023-03-14T05:09:01.991Z,98776.63
2023-03-14T05:11:33.619Z,98767.56
2023-03-14T05:13:56.048Z,98777.41
2023-03-14T05:16:36.565Z,98772.69
2023-03-14T05:19:11.654Z,98772.31
2023-03-14T05:22:00.564Z,98782.88
2023-03-14T05:24:22.121Z,98789.16
2023-03-14T05:27:09.798Z,98795.06
2023-03-14T05:29:41.262Z,98782.84
2023-03-14T05:32:38.359Z,98787.91
2023-03-14T05:35:32.625Z,98790.25
2023-03-14T05:38:12.890Z,98785.50
2023-03-14T05:40:52.833Z,98778.81
2023-03-14T05:43:32.976Z,98775.22
2023-03-14T05:46:03.542Z,98773.66
2023-03-14T05:48:47.675Z,98777.19
2023-03-14T05:51:23.115Z,98772.06
2023-03-14T05:54:07.422Z,98773.19
2023-03-14T05:56:38.102Z,98772.00
2023-03-14T05:59:19.352Z,98778.28
2023-03-14T06:01:55.421Z,98764.91
2023-03-14T06:04:20.007Z,98757.81
2023-03-14T06:06:46.460Z,98759.38
2023-03-14T06:09:08.307Z,98746.78
2023-03-14T06:11:33.082Z,98746.03
2023-03-14T06:13:55.639Z,98746.41
2023-03-14T06:16:17.283Z,98745.63
2023-03-14T06:18:38.953Z,98750.34
2023-03-14T06:21:03.235Z,98744.06
2023-03-14T06:23:27.040Z,98747.66
2023-03-14T06:25:49.516Z,98753.94
2023-03-14T06:28:11.154Z,98748.44
2023-03-14T06:30:33.314Z,98754.34
2023-03-14T06:32:56.414Z,98756.72
2023-03-14T06:35:19.247Z,98762.28
2023-03-14T06:37:42.192Z,98761.91
2023-03-14T06:40:06.229Z,98763.88
2023-03-14T06:42:51.124Z,98764.72
2023-03-14T06:45:14.948Z,98769.44
2023-03-14T06:47:37.044Z,98762.00
2023-03-14T06:49:58.713Z,98765.50
2023-03-14T06:52:20.494Z,98768.28
2023-03-14T06:54:42.389Z,98764.38
2023-03-14T06:57:04.154Z,98758.09
2023-03-14T06:59:26.800Z,98765.16
2023-03-14T07:01:49.343Z,98768.31
2023-03-14T07:04:11.875Z,98762.81
2023-03-14T07:06:38.285Z,98784.84
2023-03-14T07:09:02.300Z,98785.25
2023-03-14T07:11:25.359Z,98781.34
2023-03-14T07:13:47.180Z,98782.94
2023-03-14T07:16:09.792Z,98783.38
2023-03-14T07:18:33.155Z,98783.78
2023-03-14T07:20:56.619Z,98791.25
2023-03-14T07:23:19.180Z,98797.19
2023-03-14T07:25:47.022Z,98791.28
2023-03-14T07:28:11.019Z,98797.22
2023-03-14T07:30:35.314Z,98796.41
2023-03-14T07:32:59.859Z,98809.00
2023-03-14T07:35:21.578Z,98806.63
2023-03-14T07:37:43.217Z,98808.22
2023-03-14T07:40:08.294Z,98813.34
2023-03-14T07:42:31.253Z,98839.72
2023-03-14T07:45:14.084Z,98892.44
2023-03-14T07:47:35.715Z,98906.03
2023-03-14T07:49:57.316Z,98922.19
2023-03-14T07:52:18.945Z,98932.47
2023-03-14T07:54:40.567Z,98933.81
2023-03-14T07:57:02.767Z,98946.22
2023-03-14T07:59:24.564Z,98959.47
2023-03-14T08:01:46.202Z,98961.72
2023-03-14T08:04:08.709Z,98967.91
2023-03-14T08:06:30.379Z,98975.25
2023-03-14T08:08:52.016Z,98991.25
2023-03-14T08:11:13.727Z,98987.19
2023-03-14T08:13:36.902Z,98996.50
2023-03-14T08:15:58.593Z,99003.50
2023-03-14T08:18:20.306Z,99014.41
2023-03-14T08:20:41.930Z,99022.59
2023-03-14T08:23:03.609Z,99025.28
2023-03-14T08:25:26.703Z,99022.53
2023-03-14T08:27:48.444Z,99030.75
2023-03-14T08:30:17.085Z,99040.53
2023-03-14T08:32:39.765Z,99051.97
2023-03-14T08:35:01.650Z,99063.38
2023-03-14T08:37:27.117Z,99072.41
2023-03-14T08:39:48.925Z,99076.44
2023-03-14T08:42:10.562Z,99090.72
2023-03-14T08:44:32.234Z,99095.09
2023-03-14T08:46:53.948Z,99098.63
2023-03-14T08:49:16.629Z,99100.25
2023-03-14T08:51:38.281Z,99121.47
2023-03-14T08:53:59.979Z,99130.94
2023-03-14T08:56:22.588Z,99134.13
2023-03-14T08:58:45.474Z,99145.16
2023-03-14T09:01:10.083Z,99153.38
2023-03-14T09:03:31.882Z,99162.78
2023-03-14T09:05:53.579Z,99158.44
2023-03-14T09:08:15.266Z,99172.56
2023-03-14T09:10:39.519Z,99186.16
2023-03-14T09:13:01.260Z,99193.88
2023-03-14T09:15:22.872Z,99206.06
2023-03-14T09:17:45.345Z,99226.72
2023-03-14T09:20:08.334Z,99248.56
2023-03-14T09:22:30.028Z,99269.09
2023-03-14T09:24:51.685Z,99271.03
2023-03-14T09:27:13.414Z,99305.06
2023-03-14T09:29:35.450Z,99297.56
2023-03-14T09:32:00.008Z,99309.75
2023-03-14T09:34:21.751Z,99330.75
2023-03-14T09:36:45.290Z,99348.25
2023-03-14T09:39:07.782Z,99359.56
2023-03-14T09:41:35.526Z,99370.47
2023-03-14T09:44:19.705Z,99363.81
2023-03-14T09:46:46.130Z,99371.97
2023-03-14T09:49:35.328Z,99392.66
2023-03-14T09:52:04.114Z,99402.56
2023-03-14T09:54:52.220Z,99417.00
2023-03-14T09:57:19.320Z,99437.38
2023-03-14T09:59:45.826Z,99418.53
2023-03-14T10:02:21.972Z,99457.97
2023-03-14T10:04:47.276Z,99440.38
2023-03-14T10:07:16.670Z,99453.00
2023-03-14T10:09:38.646Z,99479.22
2023-03-14T10:12:08.950Z,99498.44
2023-03-14T10:14:37.330Z,99522.00
2023-03-14T10:17:13.455Z,99513.13
2023-03-14T10:19:36.697Z,99518.84
2023-03-14T10:22:03.721Z,99540.69
2023-03-14T10:24:35.980Z,99554.66
2023-03-14T10:27:06.943Z,99561.66
2023-03-14T10:29:29.859Z,99569.88
2023-03-14T10:32:01.972Z,99601.31
2023-03-14T10:34:31.306Z,99598.69
2023-03-14T10:37:07.765Z,99605.06
2023-03-14T10:39:46.144Z,99627.81
2023-03-14T10:42:21.781Z,99634.34
2023-03-14T10:44:44.870Z,99626.66
2023-03-14T10:47:07.023Z,99651.03
2023-03-14T10:49:32.436Z,99657.31
2023-03-14T10:51:54.140Z,99662.53
2023-03-14T10:54:24.928Z,99656.09
2023-03-14T10:56:59.730Z,99678.38
2023-03-14T10:59:21.275Z,99680.63
2023-03-14T11:01:54.977Z,99700.03
2023-03-14T11:04:49.367Z,99722.13
2023-03-14T11:07:40.108Z,99713.97
2023-03-14T11:10:25.212Z,99729.31
2023-03-14T11:13:07.825Z,99732.69
2023-03-14T11:15:46.860Z,99746.84
2023-03-14T11:18:25.454Z,99753.25
2023-03-14T11:21:11.911Z,99743.84
2023-03-14T11:24:14.809Z,99777.53
2023-03-14T11:26:58.594Z,99806.56
2023-03-14T11:29:41.092Z,99840.53
2023-03-14T11:32:19.701Z,99840.94
2023-03-14T11:34:55.127Z,99843.06
2023-03-14T11:37:34.969Z,99838.00
2023-03-14T11:40:26.246Z,99848.97
2023-03-14T11:43:01.048Z,99851.03
2023-03-14T11:45:37.717Z,99871.63
2023-03-14T11:48:16.407Z,99873.00
2023-03-14T11:50:43.987Z,99878.19
2023-03-14T11:53:15.991Z,99879.13
2023-03-14T11:55:41.651Z,99884.78
2023-03-14T11:58:22.215Z,99884.19
2023-03-14T12:00:48.053Z,99893.25
2023-03-14T12:03:12.515Z,99910.03
2023-03-14T12:05:52.762Z,99927.06
2023-03-14T12:08:27.081Z,99925.44
2023-03-14T12:11:02.511Z,99934.22
2023-03-14T12:13:33.419Z,99929.53
2023-03-14T12:16:02.359Z,99946.72
2023-03-14T12:18:31.846Z,99955.03
2023-03-14T12:21:04.444Z,99971.09
2023-03-14T12:23:36.151Z,99993.75
2023-03-14T12:26:44.310Z,99977.22
2023-03-14T12:29:10.019Z,99970.81
2023-03-14T12:31:31.659Z,99991.91
2023-03-14T12:34:09.847Z,99987.66
2023-03-14T12:36:52.602Z,99989.16
2023-03-14T12:39:23.540Z,99984.72
2023-03-14T12:41:53.344Z,99987.34
2023-03-14T12:44:30.340Z,99999.22
2023-03-14T12:46:52.066Z,99993.84
2023-03-14T12:49:13.668Z,99996.34
2023-03-14T12:51:40.058Z,100016.09
2023-03-14T12:54:40.285Z,100006.69
2023-03-14T12:57:29.187Z,100006.69
2023-03-14T13:00:00.242Z,100009.78
2023-03-14T13:02:30.236Z,100017.56
2023-03-14T13:05:03.051Z,100042.00
2023-03-14T13:07:44.227Z,100050.09
2023-03-14T13:12:43.788Z,100046.22
2023-03-14T13:15:25.109Z,100063.41
2023-03-14T13:17:50.272Z,100058.53
2023-03-14T13:20:35.235Z,100072.28
2023-03-14T13:22:56.977Z,100085.78
2023-03-14T13:25:21.901Z,100086.25
2023-03-14T13:27:43.946Z,100087.75
2023-03-14T13:30:22.286Z,100103.66
2023-03-14T13:32:48.359Z,100110.78
2023-03-14T13:35:21.047Z,100114.31
2023-03-14T13:37:42.780Z,100122.69
2023-03-14T13:40:05.105Z,100121.28
2023-03-14T13:42:30.855Z,100115.22
2023-03-14T13:44:56.352Z,100118.84
2023-03-14T13:47:22.325Z,100129.41
2023-03-14T13:49:45.943Z,100135.66
2023-03-14T13:52:32.770Z,100138.41
2023-03-14T13:55:01.318Z,100150.56
2023-03-14T13:57:23.895Z,100160.16
2023-03-14T14:00:02.112Z,100185.44
2023-03-14T14:02:27.989Z,100176.13
2023-03-14T14:04:49.658Z,100178.69
2023-03-14T14:07:22.051Z,100195.66
2023-03-14T14:09:49.760Z,100189.81
2023-03-14T14:12:22.600Z,100202.91
2023-03-14T14:14:58.242Z,100212.84
2023-03-14T14:17:28.142Z,100216.66
2023-03-14T14:19:51.761Z,100224.91
2023-03-14T14:22:13.927Z,100241.34
2023-03-14T14:24:38.598Z,100241.22
2023-03-14T14:27:36.899Z,100250.97
2023-03-14T14:30:18.288Z,100246.72
2023-03-14T14:32:41.531Z,100270.59
2023-03-14T14:35:05.715Z,100275.06
2023-03-14T14:37:42.592Z,100281.59
2023-03-14T14:40:17.514Z,100285.03
2023-03-14T14:42:42.644Z,100292.13
2023-03-14T14:45:05.113Z,100313.34
2023-03-14T14:47:29.538Z,100308.88
2023-03-14T14:49:55.058Z,100319.75
2023-03-14T14:52:20.820Z,100315.88
2023-03-14T14:54:52.023Z,100327.69
2023-03-14T14:57:20.943Z,100333.88
2023-03-14T14:59:46.296Z,100342.38
2023-03-14T15:02:45.209Z,100342.69
2023-03-14T15:05:13.696Z,100360.94
2023-03-14T15:07:35.342Z,100360.63
2023-03-14T15:09:56.983Z,100365.91
2023-03-14T15:12:18.644Z,100377.00
2023-03-14T15:14:40.274Z,100376.91
2023-03-14T15:17:02.099Z,100388.22
2023-03-14T15:19:27.041Z,100390.91
2023-03-14T15:21:48.678Z,100392.19
2023-03-14T15:24:11.055Z,100404.97
2023-03-14T15:26:32.721Z,100405.22
2023-03-14T15:28:54.966Z,100419.00
2023-03-14T15:31:18.968Z,100442.03
2023-03-14T15:33:41.036Z,100428.78
2023-03-14T15:36:03.236Z,100441.31
2023-03-14T15:38:25.068Z,100444.44
2023-03-14T15:40:46.701Z,100461.41
2023-03-14T15:43:08.582Z,100462.41
2023-03-14T15:45:31.312Z,100472.28
2023-03-14T15:47:53.016Z,100472.47
2023-03-14T15:50:14.595Z,100473.75
2023-03-14T15:52:36.451Z,100475.28
2023-03-14T15:54:58.114Z,100492.88
2023-03-14T15:57:19.713Z,100481.91
2023-03-14T15:59:41.561Z,100490.97
2023-03-14T16:02:03.203Z,100498.72
2023-03-14T16:04:24.845Z,100514.06
2023-03-14T16:06:46.697Z,100522.47
2023-03-14T16:09:08.533Z,100529.41
2023-03-14T16:11:30.197Z,100533.59
2023-03-14T16:13:51.831Z,100525.19
2023-03-14T16:16:13.609Z,100545.38
2023-03-14T16:18:39.467Z,100545.38
2023-03-14T16:21:06.868Z,100539.91
2023-03-14T16:23:30.477Z,100551.34
2023-03-14T16:25:53.587Z,100561.31
2023-03-14T16:28:15.294Z,100566.31
2023-03-14T16:30:37.037Z,100580.84
2023-03-14T16:33:02.105Z,100582.28
2023-03-14T16:35:23.946Z,100600.19
2023-03-14T16:37:45.555Z,100591.50
2023-03-14T16:40:12.762Z,100598.72
2023-03-14T16:42:34.870Z,100606.78
2023-03-14T16:44:56.436Z,100621.94
2023-03-14T16:47:18.065Z,100623.06
2023-03-14T16:49:39.837Z,100621.56
2023-03-14T16:52:01.487Z,100631.09
2023-03-14T16:54:23.101Z,100634.47
2023-03-14T16:56:45.324Z,100642.50
2023-03-14T16:59:07.716Z,100641.84
2023-03-14T17:01:29.482Z,100640.53
2023-03-14T17:03:52.262Z,100653.44
2023-03-14T17:06:24.229Z,100649.06
2023-03-14T17:08:46.158Z,100650.81
2023-03-14T17:11:08.821Z,100662.09
2023-03-14T17:13:30.583Z,100661.59
2023-03-14T17:15:58.674Z,100670.63
2023-03-14T17:18:20.332Z,100671.25
2023-03-14T17:20:42.207Z,100678.34
2023-03-14T17:23:03.790Z,100686.09
2023-03-14T17:25:25.411Z,100695.41
2023-03-14T17:27:47.148Z,100695.41
2023-03-14T17:30:10.794Z,100702.34
2023-03-14T17:32:32.628Z,100705.72
2023-03-14T17:34:54.637Z,100717.16
2023-03-14T17:37:16.283Z,100719.91
2023-03-14T17:39:39.474Z,100723.44
2023-03-14T17:42:01.221Z,100731.97
2023-03-14T17:44:22.922Z,100735.03
2023-03-14T17:46:44.630Z,100738.09
2023-03-14T17:49:06.307Z,100746.13
2023-03-14T17:51:27.989Z,100747.88
2023-03-14T17:53:49.657Z,100749.78
2023-03-14T17:56:11.825Z,100765.41
2023-03-14T17:58:36.589Z,100766.53
2023-03-14T18:00:58.296Z,100773.44
2023-03-14T18:03:19.940Z,100771.31
2023-03-14T18:05:42.012Z,100780.16
2023-03-14T18:08:03.596Z,100788.19
2023-03-14T18:10:25.407Z,100787.97
2023-03-14T18:12:47.832Z,100791.97
2023-03-14T18:15:10.581Z,100792.59
2023-03-14T18:17:32.262Z,100793.81
2023-03-14T18:19:55.798Z,100802.13
2023-03-14T18:22:17.507Z,100801.63
2023-03-14T18:24:39.190Z,100815.63
2023-03-14T18:27:00.858Z,100820.09
2023-03-14T18:29:22.596Z,100820.72
2023-03-14T18:31:45.064Z,100835.81
2023-03-14T18:34:07.340Z,100830.47
2023-03-14T18:36:29.229Z,100840.06
2023-03-14T18:38:56.507Z,100841.28
2023-03-14T18:41:23.301Z,100859.94
2023-03-14T18:43:46.174Z,100854.28
2023-03-14T18:46:07.861Z,100854.56
2023-03-14T18:48:30.621Z,100864.81
2023-03-14T18:50:52.263Z,100862.38
2023-03-14T18:53:13.903Z,100865.72
2023-03-14T18:55:35.623Z,100867.41
2023-03-14T18:57:57.222Z,100877.34
2023-03-14T19:00:20.275Z,100885.06
2023-03-14T19:02:42.091Z,100882.59
2023-03-14T19:05:04.069Z,100886.47
2023-03-14T19:07:25.718Z,100889.50
2023-03-14T19:09:47.471Z,100891.19
2023-03-14T19:12:09.141Z,100889.03
2023-03-14T19:14:30.730Z,100903.84
2023-03-14T19:16:52.433Z,100905.03
2023-03-14T19:19:14.405Z,100904.50
2023-03-14T19:21:36.118Z,100904.59
2023-03-14T19:23:57.963Z,100906.28
2023-03-14T19:26:19.619Z,100908.03
2023-03-14T19:28:41.284Z,100912.75
2023-03-14T19:31:04.865Z,100919.94
2023-03-14T19:33:27.113Z,100929.03
2023-03-14T19:35:48.994Z,100923.84
2023-03-14T19:38:12.313Z,100925.78
2023-03-14T19:40:35.705Z,100936.69
2023-03-14T19:42:57.422Z,100931.53
2023-03-14T19:45:19.036Z,100927.19
2023-03-14T19:47:40.695Z,100933.25
2023-03-14T19:50:03.362Z,100943.13
2023-03-14T19:52:25.063Z,100936.41
2023-03-14T19:54:46.702Z,100935.97
2023-03-14T19:57:08.649Z,100939.06
2023-03-14T19:59:30.432Z,100943.78
2023-03-14T20:01:52.591Z,100940.09
2023-03-14T20:04:15.013Z,100952.19
2023-03-14T20:06:36.942Z,100949.03
2023-03-14T20:09:00.097Z,100943.31
2023-03-14T20:11:21.817Z,100950.19
2023-03-14T20:13:44.540Z,100950.25
2023-03-14T20:16:10.546Z,100951.91
2023-03-14T20:18:32.647Z,100952.50
2023-03-14T20:20:54.193Z,100955.03
2023-03-14T20:23:15.892Z,100954.19
2023-03-14T20:25:37.817Z,100957.50
2023-03-14T20:27:59.547Z,100955.91
2023-03-14T20:30:22.826Z,100952.63
2023-03-14T20:32:45.284Z,100958.16
2023-03-14T20:35:10.283Z,100964.19
2023-03-14T20:37:32.733Z,100963.94
2023-03-14T20:39:54.488Z,100963.41
2023-03-14T20:42:17.891Z,100973.00
2023-03-14T20:44:39.707Z,100983.38
2023-03-14T20:47:01.409Z,100975.78
2023-03-14T20:49:23.075Z,100979.09
2023-03-14T20:51:44.689Z,100979.38
2023-03-14T20:54:09.056Z,100986.22
2023-03-14T20:56:30.774Z,100996.59
2023-03-14T20:58:52.465Z,101000.44
2023-03-14T21:03:54.272Z,100993.88
2023-03-14T21:06:15.886Z,100996.59
2023-03-14T21:08:39.411Z,100994.72
2023-03-14T21:11:01.042Z,101000.38
2023-03-14T21:13:24.116Z,101012.88
2023-03-14T21:15:46.056Z,101010.09
2023-03-14T21:18:07.686Z,101003.25
2023-03-14T21:20:29.200Z,101007.84
2023-03-14T21:22:50.784Z,101002.63
2023-03-14T21:25:12.446Z,100997.41
2023-03-14T21:27:34.121Z,101007.97
2023-03-14T21:29:57.341Z,101008.78
2023-03-14T21:32:20.012Z,101003.78
2023-03-14T21:34:41.602Z,100999.38
2023-03-14T21:37:03.678Z,100993.84
2023-03-14T21:39:25.343Z,100987.81
2023-03-14T21:41:46.984Z,100998.44
2023-03-14T21:44:08.594Z,100987.78
2023-03-14T21:46:30.699Z,100981.47
2023-03-14T21:48:53.956Z,100979.06
2023-03-14T21:51:15.504Z,100977.13
2023-03-14T21:53:38.798Z,100970.28
2023-03-14T21:56:00.975Z,100974.13
2023-03-14T21:58:23.884Z,100978.75
2023-03-14T22:00:49.169Z,100997.28
2023-03-14T22:03:14.065Z,100991.53
2023-03-14T22:05:35.742Z,101002.97
2023-03-14T22:07:57.579Z,101043.88
2023-03-14T22:10:19.614Z,101051.78
2023-03-14T22:12:41.355Z,101046.38
2023-03-14T22:15:05.288Z,101034.13
2023-03-14T22:17:27.901Z,101021.34
2023-03-14T22:19:49.493Z,101029.28
2023-03-14T22:22:11.250Z,101035.34
2023-03-14T22:24:33.001Z,101044.84
2023-03-14T22:26:55.566Z,101034.75
2023-03-14T22:29:17.630Z,101027.34
2023-03-14T22:31:39.318Z,101030.63
2023-03-14T22:34:00.888Z,101038.53
2023-03-14T22:36:22.762Z,101037.94
2023-03-14T22:38:44.316Z,101031.88
2023-03-14T22:41:06.690Z,101043.94
2023-03-14T22:43:30.549Z,101045.03
2023-03-14T22:46:02.923Z,101050.25
2023-03-14T22:48:24.599Z,101043.75
2023-03-14T22:50:46.146Z,101046.78
2023-03-14T22:53:07.865Z,101048.19
2023-03-14T22:55:29.442Z,101054.09
2023-03-14T22:57:52.814Z,101062.28
2023-03-14T23:00:16.754Z,101061.97
2023-03-14T23:02:40.398Z,101057.69
2023-03-14T23:05:02.124Z,101081.00
2023-03-14T23:07:23.673Z,101079.00
2023-03-14T23:09:45.245Z,101080.94
2023-03-14T23:12:08.585Z,101088.06
2023-03-14T23:14:30.618Z,101087.25
2023-03-14T23:16:55.639Z,101094.34
2023-03-14T23:19:17.519Z,101092.19
2023-03-14T23:21:39.159Z,101101.19
2023-03-14T23:24:05.563Z,101101.25
2023-03-14T23:26:27.492Z,101098.28
2023-03-14T23:28:50.692Z,101114.13
2023-03-14T23:31:14.510Z,101111.19
2023-03-14T23:33:37.590Z,101111.25
2023-03-14T23:35:59.241Z,101120.28
2023-03-14T23:38:27.097Z,101114.34
2023-03-14T23:40:48.634Z,101116.88
2023-03-14T23:43:10.172Z,101119.91
2023-03-14T23:45:31.786Z,101117.75
2023-03-14T23:47:53.406Z,101117.81
2023-03-14T23:50:14.959Z,101125.72
2023-03-14T23:52:36.658Z,101128.78
2023-03-14T23:54:58.373Z,101130.72
2023-03-14T23:57:19.909Z,101132.94
2023-03-14T23:59:42.832Z,101135.44
